Temp: 17.3°C   Baro: 1015.4mb
  Wind: 14.1mph   Dir: WNW (291°)
  Rain: 9.6mm (0.0mm/hr)
  Solar: 715W/m2  Hum: 67%
 
Bath Spa Weather Historical Data
Daily Summary for July 8, 2019 Units:  Metric    English   Both
Next Day »
Daily Weekly Monthly Yearly Custom
  High: Low: Average:
Temperature: 23.4 °C 12.4 °C 17.5 °C
Dew Point: 14.7 °C 8.8 °C 12.3 °C
Humidity: 92% 54% 73%
Wind Speed: 17.7km/h 0.0km/h 2.5km/h
Wind Gust: 20.9km/h - -
Wind direction- - West
Pressure: 1020.5 hPa 1018.2 hPa -
Precipitation: 0.0 mm    
Historical Graphs
 
 
Tabular Data for July 8, 2019
Time Temperature Dew Point Pressure Wind direction Wind Speed Wind Gust Humidity Rainfall Rate (Hourly) solar
00:04 14.4 °C 11.2 °C 1018.2 hPa West 1.4 km/h 4.8 km/h 81% 0.0 mm 0.00 W/m2
00:09 14.3 °C 11.1 °C 1018.2 hPa Calm   1.6 km/h 81% 0.0 mm 0.00 W/m2
00:14 14.2 °C 11.2 °C 1018.2 hPa Calm     82% 0.0 mm 0.00 W/m2
00:19 14.2 °C 11.2 °C 1018.2 hPa Calm     82% 0.0 mm 0.00 W/m2
00:24 14.0 °C 11.0 °C 1018.2 hPa Calm     82% 0.0 mm 0.00 W/m2
00:29 13.9 °C 11.1 °C 1018.2 hPa Calm     83% 0.0 mm 0.00 W/m2
00:34 13.8 °C 11.0 °C 1018.5 hPa Calm     83% 0.0 mm 0.00 W/m2
00:39 13.7 °C 10.9 °C 1018.5 hPa Calm   3.2 km/h 83% 0.0 mm 0.00 W/m2
00:44 13.7 °C 11.0 °C 1018.5 hPa Calm     84% 0.0 mm 0.00 W/m2
00:49 13.7 °C 11.0 °C 1018.5 hPa Calm     84% 0.0 mm 0.00 W/m2
00:54 13.7 °C 11.0 °C 1018.5 hPa Calm     84% 0.0 mm 0.00 W/m2
00:59 13.5 °C 10.8 °C 1018.5 hPa Calm     84% 0.0 mm 0.00 W/m2
01:04 13.4 °C 10.8 °C 1018.5 hPa Calm     84% 0.0 mm 0.00 W/m2
01:09 13.4 °C 10.9 °C 1018.5 hPa Calm     85% 0.0 mm 0.00 W/m2
01:14 13.5 °C 11.0 °C 1018.5 hPa Calm     85% 0.0 mm 0.00 W/m2
01:19 13.5 °C 11.0 °C 1018.5 hPa Calm     85% 0.0 mm 0.00 W/m2
01:24 13.5 °C 11.0 °C 1018.5 hPa Calm     85% 0.0 mm 0.00 W/m2
01:29 13.4 °C 10.9 °C 1018.5 hPa Calm     85% 0.0 mm 0.00 W/m2
01:34 13.4 °C 10.9 °C 1018.5 hPa Calm     85% 0.0 mm 0.00 W/m2
01:39 13.3 °C 10.8 °C 1018.5 hPa Calm     85% 0.0 mm 0.00 W/m2
01:44 13.3 °C 10.8 °C 1018.5 hPa Calm     85% 0.0 mm 0.00 W/m2
01:49 13.3 °C 10.8 °C 1018.5 hPa Calm     85% 0.0 mm 0.00 W/m2
01:54 13.2 °C 10.7 °C 1018.5 hPa Calm     85% 0.0 mm 0.00 W/m2
01:59 13.2 °C 10.9 °C 1018.5 hPa Calm     86% 0.0 mm 0.00 W/m2
02:04 13.2 °C 10.9 °C 1018.5 hPa Calm     86% 0.0 mm 0.00 W/m2
02:09 13.1 °C 10.8 °C 1018.5 hPa Calm     86% 0.0 mm 0.00 W/m2
02:14 13.0 °C 10.7 °C 1018.5 hPa Calm     86% 0.0 mm 0.00 W/m2
02:19 12.9 °C 10.4 °C 1018.5 hPa Calm     85% 0.0 mm 0.00 W/m2
02:24 12.9 °C 10.6 °C 1018.5 hPa Calm     86% 0.0 mm 0.00 W/m2
02:29 12.8 °C 10.5 °C 1018.5 hPa Calm     86% 0.0 mm 0.00 W/m2
02:34 12.8 °C 10.5 °C 1018.5 hPa Calm     86% 0.0 mm 0.00 W/m2
02:39 12.7 °C 10.4 °C 1018.5 hPa Calm     86% 0.0 mm 0.00 W/m2
02:44 12.7 °C 10.4 °C 1018.5 hPa Calm     86% 0.0 mm 0.00 W/m2
02:49 12.7 °C 10.4 °C 1018.5 hPa Calm     86% 0.0 mm 0.00 W/m2
02:54 12.6 °C 10.3 °C 1018.5 hPa Calm     86% 0.0 mm 0.00 W/m2
02:59 12.5 °C 10.2 °C 1018.8 hPa Calm     86% 0.0 mm 0.00 W/m2
03:04 12.5 °C 10.2 °C 1018.8 hPa Calm     86% 0.0 mm 0.00 W/m2
03:09 12.5 °C 10.2 °C 1018.8 hPa Calm     86% 0.0 mm 0.00 W/m2
03:14 12.4 °C 10.3 °C 1018.8 hPa Calm     87% 0.0 mm 0.00 W/m2
03:19 12.5 °C 10.4 °C 1018.8 hPa Calm     87% 0.0 mm 0.00 W/m2
03:24 12.5 °C 10.4 °C 1018.8 hPa Calm     87% 0.0 mm 0.00 W/m2
03:29 12.5 °C 10.4 °C 1018.8 hPa Calm     87% 0.0 mm 0.00 W/m2
03:34 12.6 °C 10.5 °C 1018.8 hPa Calm     87% 0.0 mm 0.00 W/m2
03:39 12.7 °C 10.8 °C 1018.8 hPa Calm     88% 0.0 mm 0.00 W/m2
03:44 12.6 °C 10.7 °C 1018.8 hPa Calm     88% 0.0 mm 0.00 W/m2
03:49 12.5 °C 10.6 °C 1018.8 hPa Calm     88% 0.0 mm 0.00 W/m2
03:54 12.5 °C 10.6 °C 1018.8 hPa Calm     88% 0.0 mm 0.00 W/m2
03:59 12.4 °C 10.5 °C 1018.8 hPa Calm     88% 0.0 mm 0.00 W/m2
04:04 12.4 °C 10.5 °C 1018.8 hPa Calm     88% 0.0 mm 0.00 W/m2
04:09 12.4 °C 10.5 °C 1018.8 hPa Calm     88% 0.0 mm 0.00 W/m2
04:14 12.4 °C 10.6 °C 1018.8 hPa Calm     89% 0.0 mm 0.00 W/m2
04:19 12.4 °C 10.6 °C 1019.2 hPa Calm     89% 0.0 mm 0.00 W/m2
04:24 12.4 °C 10.6 °C 1019.2 hPa Calm     89% 0.0 mm 0.00 W/m2
04:29 12.4 °C 10.6 °C 1019.2 hPa Calm     89% 0.0 mm 0.00 W/m2
04:34 12.5 °C 10.9 °C 1019.2 hPa Calm     90% 0.0 mm 0.00 W/m2
04:39 12.6 °C 11.0 °C 1019.2 hPa Calm     90% 0.0 mm 0.00 W/m2
04:44 12.6 °C 11.0 °C 1019.2 hPa Calm     90% 0.0 mm 0.00 W/m2
04:49 12.6 °C 11.0 °C 1019.5 hPa Calm     90% 0.0 mm 0.00 W/m2
04:54 12.7 °C 11.3 °C 1019.2 hPa Calm     91% 0.0 mm 0.00 W/m2
04:59 12.7 °C 11.3 °C 1019.5 hPa Calm     91% 0.0 mm 0.00 W/m2
05:04 12.8 °C 11.4 °C 1019.5 hPa Calm     91% 0.0 mm 0.00 W/m2
05:09 12.9 °C 11.5 °C 1019.2 hPa Calm     91% 0.0 mm 0.00 W/m2
05:14 12.9 °C 11.5 °C 1019.5 hPa Calm     91% 0.0 mm 0.00 W/m2
05:19 13.0 °C 11.6 °C 1019.5 hPa Calm     91% 0.0 mm 0.00 W/m2
05:24 13.0 °C 11.6 °C 1019.5 hPa Calm     91% 0.0 mm 5.00 W/m2
05:29 13.0 °C 11.6 °C 1019.5 hPa Calm     91% 0.0 mm 5.00 W/m2
05:34 13.1 °C 11.8 °C 1019.5 hPa Calm     92% 0.0 mm 5.00 W/m2
05:39 13.1 °C 11.8 °C 1019.5 hPa Calm     92% 0.0 mm 9.00 W/m2
05:44 13.2 °C 11.9 °C 1019.5 hPa Calm     92% 0.0 mm 16.00 W/m2
05:49 13.2 °C 11.9 °C 1019.5 hPa Calm     92% 0.0 mm 21.00 W/m2
05:54 13.2 °C 11.9 °C 1019.5 hPa Calm     92% 0.0 mm 25.00 W/m2
05:59 13.2 °C 11.9 °C 1019.9 hPa Calm     92% 0.0 mm 25.00 W/m2
06:04 13.2 °C 11.9 °C 1019.9 hPa Calm     92% 0.0 mm 19.00 W/m2
06:09 13.3 °C 12.0 °C 1019.9 hPa Calm     92% 0.0 mm 18.00 W/m2
06:14 13.3 °C 12.0 °C 1019.9 hPa Calm     92% 0.0 mm 21.00 W/m2
06:19 13.3 °C 12.0 °C 1019.9 hPa Calm     92% 0.0 mm 23.00 W/m2
06:24 13.3 °C 12.0 °C 1019.9 hPa Calm     92% 0.0 mm 23.00 W/m2
06:29 13.4 °C 12.1 °C 1019.9 hPa Calm     92% 0.0 mm 25.00 W/m2
06:34 13.3 °C 12.0 °C 1019.9 hPa SW 3.2 km/h 9.7 km/h 92% 0.0 mm 26.00 W/m2
06:39 13.3 °C 12.0 °C 1019.9 hPa SW 1.4 km/h 4.8 km/h 92% 0.0 mm 26.00 W/m2
06:44 13.3 °C 12.0 °C 1019.9 hPa SW 1.4 km/h 4.8 km/h 92% 0.0 mm 33.00 W/m2
06:49 13.2 °C 11.9 °C 1019.9 hPa SW 3.2 km/h 4.8 km/h 92% 0.0 mm 35.00 W/m2
06:54 13.2 °C 11.9 °C 1019.9 hPa Calm   6.4 km/h 92% 0.0 mm 53.00 W/m2
06:59 13.3 °C 12.0 °C 1019.9 hPa Calm   1.6 km/h 92% 0.0 mm 58.00 W/m2
07:04 13.3 °C 12.0 °C 1019.9 hPa Calm   3.2 km/h 92% 0.0 mm 69.00 W/m2
07:09 13.4 °C 12.1 °C 1019.9 hPa Calm     92% 0.0 mm 86.00 W/m2
07:14 13.4 °C 12.1 °C 1019.9 hPa Calm   1.6 km/h 92% 0.0 mm 86.00 W/m2
07:19 13.5 °C 12.2 °C 1019.9 hPa Calm     92% 0.0 mm 100.00 W/m2
07:24 13.8 °C 12.5 °C 1019.9 hPa Calm     92% 0.0 mm 86.00 W/m2
07:29 13.8 °C 12.5 °C 1019.9 hPa Calm   1.6 km/h 92% 0.0 mm 165.00 W/m2
07:34 13.9 °C 12.6 °C 1019.9 hPa Calm   1.6 km/h 92% 0.0 mm 199.00 W/m2
07:39 13.9 °C 12.6 °C 1019.9 hPa Calm     92% 0.0 mm 137.00 W/m2
07:44 14.1 °C 12.8 °C 1019.9 hPa Calm   3.2 km/h 92% 0.0 mm 255.00 W/m2
07:49 14.3 °C 13.0 °C 1019.9 hPa Calm   1.6 km/h 92% 0.0 mm 274.00 W/m2
07:54 14.5 °C 13.0 °C 1019.9 hPa Calm   1.6 km/h 91% 0.0 mm 255.00 W/m2
07:59 14.8 °C 13.3 °C 1019.9 hPa SW 6.4 km/h 6.4 km/h 91% 0.0 mm 265.00 W/m2
08:04 15.0 °C 13.4 °C 1019.9 hPa WNW 6.4 km/h 12.9 km/h 90% 0.0 mm 243.00 W/m2
08:09 15.2 °C 13.4 °C 1019.9 hPa WNW 4.7 km/h 8.0 km/h 89% 0.0 mm 272.00 W/m2
08:14 15.2 °C 13.0 °C 1020.2 hPa West 4.7 km/h 8.0 km/h 87% 0.0 mm 336.00 W/m2
08:19 15.4 °C 13.2 °C 1020.2 hPa West 4.7 km/h 9.7 km/h 87% 0.0 mm 306.00 W/m2
08:24 15.6 °C 13.3 °C 1020.2 hPa West 4.7 km/h 4.8 km/h 86% 0.0 mm 353.00 W/m2
08:29 16.0 °C 13.5 °C 1020.2 hPa West 6.4 km/h 8.0 km/h 85% 0.0 mm 292.00 W/m2
08:34 16.0 °C 13.1 °C 1020.2 hPa West 6.4 km/h 11.3 km/h 83% 0.0 mm 244.00 W/m2
08:39 16.0 °C 13.1 °C 1020.2 hPa West 3.2 km/h 8.0 km/h 83% 0.0 mm 234.00 W/m2
08:44 16.0 °C 12.9 °C 1020.2 hPa Calm   8.0 km/h 82% 0.0 mm 360.00 W/m2
08:49 16.2 °C 12.9 °C 1020.2 hPa West 7.9 km/h 8.0 km/h 81% 0.0 mm 209.00 W/m2
08:54 16.2 °C 12.9 °C 1020.2 hPa Calm   1.6 km/h 81% 0.0 mm 272.00 W/m2
08:59 16.5 °C 13.2 °C 1020.2 hPa Calm   3.2 km/h 81% 0.0 mm 371.00 W/m2
09:04 16.8 °C 13.3 °C 1020.2 hPa West 3.2 km/h 6.4 km/h 80% 0.0 mm 301.00 W/m2
09:09 16.7 °C 13.2 °C 1020.2 hPa West 3.2 km/h 8.0 km/h 80% 0.0 mm 306.00 W/m2
09:14 16.7 °C 13.2 °C 1020.2 hPa West 1.4 km/h 6.4 km/h 80% 0.0 mm 432.00 W/m2
09:19 16.9 °C 13.2 °C 1020.5 hPa West 3.2 km/h 8.0 km/h 79% 0.0 mm 294.00 W/m2
09:24 16.7 °C 13.0 °C 1020.5 hPa West 1.4 km/h 4.8 km/h 79% 0.0 mm 313.00 W/m2
09:29 16.9 °C 13.2 °C 1020.5 hPa Calm     79% 0.0 mm 309.00 W/m2
09:34 17.5 °C 13.6 °C 1020.5 hPa Calm   1.6 km/h 78% 0.0 mm 281.00 W/m2
09:39 17.8 °C 13.7 °C 1020.2 hPa Calm   4.8 km/h 77% 0.0 mm 262.00 W/m2
09:44 17.6 °C 13.3 °C 1020.2 hPa Calm   9.7 km/h 76% 0.0 mm 239.00 W/m2
09:49 17.2 °C 12.9 °C 1020.5 hPa West 6.4 km/h 6.4 km/h 76% 0.0 mm 311.00 W/m2
09:54 17.4 °C 13.3 °C 1020.5 hPa Calm   6.4 km/h 77% 0.0 mm 229.00 W/m2
09:59 17.7 °C 13.6 °C 1020.2 hPa Calm   3.2 km/h 77% 0.0 mm 624.00 W/m2
10:04 18.1 °C 13.6 °C 1020.2 hPa Calm     75% 0.0 mm 631.00 W/m2
10:09 18.3 °C 13.6 °C 1020.2 hPa Calm   1.6 km/h 74% 0.0 mm 262.00 W/m2
10:14 18.1 °C 13.4 °C 1020.2 hPa Calm   4.8 km/h 74% 0.0 mm 253.00 W/m2
10:19 18.0 °C 13.3 °C 1020.2 hPa West 1.4 km/h 3.2 km/h 74% 0.0 mm 216.00 W/m2
10:24 18.0 °C 13.3 °C 1020.2 hPa West 3.2 km/h 4.8 km/h 74% 0.0 mm 237.00 W/m2
10:29 18.1 °C 13.4 °C 1020.2 hPa West 3.2 km/h 3.2 km/h 74% 0.0 mm 229.00 W/m2
10:34 18.0 °C 13.3 °C 1020.2 hPa Calm   4.8 km/h 74% 0.0 mm 225.00 W/m2
10:39 18.3 °C 13.4 °C 1020.2 hPa Calm   4.8 km/h 73% 0.0 mm 297.00 W/m2
10:44 18.5 °C 13.4 °C 1020.2 hPa Calm   1.6 km/h 72% 0.0 mm 315.00 W/m2
10:49 18.9 °C 13.5 °C 1020.2 hPa Calm   1.6 km/h 71% 0.0 mm 292.00 W/m2
10:54 18.9 °C 13.3 °C 1020.2 hPa West 4.7 km/h 8.0 km/h 70% 0.0 mm 251.00 W/m2
10:59 18.8 °C 13.4 °C 1020.2 hPa West 1.4 km/h 4.8 km/h 71% 0.0 mm 278.00 W/m2
11:04 19.1 °C 13.5 °C 1020.2 hPa Calm     70% 0.0 mm 816.00 W/m2
11:09 19.3 °C 13.2 °C 1020.2 hPa Calm   1.6 km/h 68% 0.0 mm 795.00 W/m2
11:14 18.9 °C 12.9 °C 1020.2 hPa West 8.0 km/h 8.0 km/h 68% 0.0 mm 257.00 W/m2
11:19 19.3 °C 13.0 °C 1020.2 hPa SSW 4.7 km/h 6.4 km/h 67% 0.0 mm 789.00 W/m2
11:24 19.6 °C 13.1 °C 1020.2 hPa SW 9.7 km/h 9.7 km/h 66% 0.0 mm 262.00 W/m2
11:29 19.3 °C 13.2 °C 1020.2 hPa West 3.2 km/h 6.4 km/h 68% 0.0 mm 244.00 W/m2
11:34 19.2 °C 13.1 °C 1020.2 hPa West 4.7 km/h 6.4 km/h 68% 0.0 mm 232.00 W/m2
11:39 19.2 °C 13.1 °C 1020.2 hPa West 4.7 km/h 4.8 km/h 68% 0.0 mm 206.00 W/m2
11:44 19.1 °C 13.1 °C 1020.2 hPa West 6.4 km/h 6.4 km/h 68% 0.0 mm 185.00 W/m2
11:49 19.1 °C 12.8 °C 1020.2 hPa West 4.7 km/h 11.3 km/h 67% 0.0 mm 202.00 W/m2
11:54 19.1 °C 12.8 °C 1020.2 hPa West 7.9 km/h 8.0 km/h 67% 0.0 mm 229.00 W/m2
11:59 19.3 °C 12.8 °C 1020.2 hPa SW 6.4 km/h 9.7 km/h 66% 0.0 mm 253.00 W/m2
12:04 19.4 °C 12.7 °C 1020.2 hPa SW 3.2 km/h 8.0 km/h 65% 0.0 mm 341.00 W/m2
12:09 19.7 °C 12.9 °C 1020.5 hPa Calm   4.8 km/h 65% 0.0 mm 902.00 W/m2
12:14 20.1 °C 13.1 °C 1020.2 hPa WSW 9.7 km/h 12.9 km/h 64% 0.0 mm 879.00 W/m2
12:19 20.5 °C 14.2 °C 1020.2 hPa WNW 9.7 km/h 11.3 km/h 67% 0.0 mm 784.00 W/m2
12:24 20.8 °C 14.2 °C 1020.2 hPa SSW 6.4 km/h 6.4 km/h 66% 0.0 mm 861.00 W/m2
12:29 21.2 °C 14.6 °C 1020.2 hPa SW 7.9 km/h 9.7 km/h 66% 0.0 mm 846.00 W/m2
12:34 20.7 °C 13.9 °C 1020.2 hPa WSW 4.7 km/h 12.9 km/h 65% 0.0 mm 838.00 W/m2
12:39 21.3 °C 14.2 °C 1020.2 hPa West 6.4 km/h 9.7 km/h 64% 0.0 mm 858.00 W/m2
12:44 21.1 °C 13.8 °C 1020.2 hPa SW 6.4 km/h 11.3 km/h 63% 0.0 mm 911.00 W/m2
12:49 21.3 °C 14.0 °C 1020.2 hPa WSW 12.9 km/h 12.9 km/h 63% 0.0 mm 844.00 W/m2
12:54 21.2 °C 13.9 °C 1020.2 hPa West 1.4 km/h 14.5 km/h 63% 0.0 mm 856.00 W/m2
12:59 21.8 °C 14.4 °C 1019.9 hPa West 1.4 km/h 6.4 km/h 63% 0.0 mm 925.00 W/m2
13:04 22.0 °C 14.1 °C 1019.9 hPa Calm   11.3 km/h 61% 0.0 mm 874.00 W/m2
13:09 22.2 °C 14.1 °C 1019.9 hPa West 3.2 km/h 11.3 km/h 60% 0.0 mm 898.00 W/m2
13:14 21.9 °C 13.0 °C 1019.9 hPa Calm   9.7 km/h 57% 0.0 mm 874.00 W/m2
13:19 22.1 °C 13.7 °C 1019.9 hPa West 7.9 km/h 16.1 km/h 59% 0.0 mm 854.00 W/m2
13:24 21.9 °C 13.0 °C 1019.9 hPa SW 7.9 km/h 14.5 km/h 57% 0.0 mm 849.00 W/m2
13:29 22.2 °C 13.5 °C 1019.9 hPa West 9.7 km/h 12.9 km/h 58% 0.0 mm 854.00 W/m2
13:34 22.4 °C 13.2 °C 1019.9 hPa WSW 11.1 km/h 16.1 km/h 56% 0.0 mm 814.00 W/m2
13:39 22.0 °C 13.4 °C 1019.9 hPa WSW 4.7 km/h 14.5 km/h 58% 0.0 mm 861.00 W/m2
13:44 22.2 °C 13.3 °C 1019.5 hPa South 4.7 km/h 12.9 km/h 57% 0.0 mm 849.00 W/m2
13:49 22.8 °C 14.1 °C 1019.5 hPa WNW 9.7 km/h 12.9 km/h 58% 0.0 mm 895.00 W/m2
13:54 22.4 °C 13.7 °C 1019.5 hPa WSW 6.4 km/h 12.9 km/h 58% 0.0 mm 911.00 W/m2
13:59 21.8 °C 13.4 °C 1019.9 hPa SSW 4.7 km/h 9.7 km/h 59% 0.0 mm 858.00 W/m2
14:04 22.3 °C 13.4 °C 1019.9 hPa South 6.4 km/h 9.7 km/h 57% 0.0 mm 872.00 W/m2
14:09 22.8 °C 13.6 °C 1019.9 hPa SW 1.4 km/h 6.4 km/h 56% 0.0 mm 946.00 W/m2
14:14 22.6 °C 13.4 °C 1019.9 hPa SW 6.4 km/h 9.7 km/h 56% 0.0 mm 786.00 W/m2
14:19 22.4 °C 13.7 °C 1019.5 hPa SW 3.2 km/h 6.4 km/h 58% 0.0 mm 837.00 W/m2
14:24 22.2 °C 13.0 °C 1019.5 hPa South 11.1 km/h 12.9 km/h 56% 0.0 mm 316.00 W/m2
14:29 22.0 °C 12.8 °C 1019.5 hPa SSE 4.7 km/h 11.3 km/h 56% 0.0 mm 211.00 W/m2
14:34 22.5 °C 13.3 °C 1019.5 hPa Calm   12.9 km/h 56% 0.0 mm 227.00 W/m2
14:39 22.2 °C 13.3 °C 1019.5 hPa SW 1.4 km/h 6.4 km/h 57% 0.0 mm 287.00 W/m2
14:44 22.5 °C 13.8 °C 1019.5 hPa WNW 11.1 km/h 12.9 km/h 58% 0.0 mm 905.00 W/m2
14:49 22.8 °C 13.3 °C 1019.5 hPa West 7.9 km/h 11.3 km/h 55% 0.0 mm 837.00 W/m2
14:54 22.7 °C 13.5 °C 1019.5 hPa WNW 6.4 km/h 9.7 km/h 56% 0.0 mm 294.00 W/m2
14:59 22.7 °C 13.7 °C 1019.2 hPa WNW 6.4 km/h 6.4 km/h 57% 0.0 mm 264.00 W/m2
15:04 22.5 °C 13.3 °C 1019.5 hPa West 4.7 km/h 9.7 km/h 56% 0.0 mm 227.00 W/m2
15:09 22.2 °C 13.3 °C 1019.2 hPa Calm   1.6 km/h 57% 0.0 mm 213.00 W/m2
15:14 22.3 °C 13.6 °C 1019.2 hPa West 8.0 km/h 8.0 km/h 58% 0.0 mm 239.00 W/m2
15:19 22.2 °C 13.5 °C 1019.2 hPa West 1.4 km/h 4.8 km/h 58% 0.0 mm 271.00 W/m2
15:24 22.5 °C 13.8 °C 1019.2 hPa West 9.7 km/h 9.7 km/h 58% 0.0 mm 812.00 W/m2
15:29 23.0 °C 13.7 °C 1019.2 hPa Calm   8.0 km/h 56% 0.0 mm 752.00 W/m2
15:34 23.3 °C 13.5 °C 1019.2 hPa SW 3.2 km/h 12.9 km/h 54% 0.0 mm 770.00 W/m2
15:39 22.9 °C 13.1 °C 1019.2 hPa South 11.1 km/h 11.3 km/h 54% 0.0 mm 786.00 W/m2
15:44 22.8 °C 13.6 °C 1019.2 hPa SSW 6.4 km/h 16.1 km/h 56% 0.0 mm 761.00 W/m2
15:49 22.7 °C 13.7 °C 1019.2 hPa Calm   6.4 km/h 57% 0.0 mm 745.00 W/m2
15:54 23.2 °C 13.7 °C 1019.2 hPa WSW 9.7 km/h 16.1 km/h 55% 0.0 mm 733.00 W/m2
15:59 23.4 °C 13.8 °C 1019.2 hPa WNW 11.1 km/h 14.5 km/h 55% 0.0 mm 786.00 W/m2
16:04 23.2 °C 13.7 °C 1019.2 hPa WSW 9.7 km/h 14.5 km/h 55% 0.0 mm 264.00 W/m2
16:09 22.5 °C 13.6 °C 1019.2 hPa SW 11.1 km/h 16.1 km/h 57% 0.0 mm 241.00 W/m2
16:14 22.4 °C 13.7 °C 1019.2 hPa SW 3.2 km/h 9.7 km/h 58% 0.0 mm 206.00 W/m2
16:19 22.4 °C 13.5 °C 1019.2 hPa West 3.2 km/h 14.5 km/h 57% 0.0 mm 186.00 W/m2
16:24 22.2 °C 13.5 °C 1019.2 hPa SW 6.4 km/h 9.7 km/h 58% 0.0 mm 137.00 W/m2
16:29 22.0 °C 13.4 °C 1019.2 hPa West 9.7 km/h 14.5 km/h 58% 0.0 mm 109.00 W/m2
16:34 21.8 °C 13.4 °C 1019.2 hPa West 4.7 km/h 9.7 km/h 59% 0.0 mm 93.00 W/m2
16:39 21.5 °C 13.1 °C 1019.2 hPa WNW 3.2 km/h 12.9 km/h 59% 0.0 mm 109.00 W/m2
16:44 21.6 °C 13.2 °C 1019.2 hPa WSW 4.7 km/h 12.9 km/h 59% 0.0 mm 120.00 W/m2
16:49 21.8 °C 13.4 °C 1019.2 hPa West 6.4 km/h 12.9 km/h 59% 0.0 mm 123.00 W/m2
16:54 21.7 °C 14.1 °C 1019.2 hPa WNW 3.2 km/h 6.4 km/h 62% 0.0 mm 121.00 W/m2
16:59 21.3 °C 14.5 °C 1019.2 hPa WNW 3.2 km/h 9.7 km/h 65% 0.0 mm 134.00 W/m2
17:04 21.4 °C 14.5 °C 1019.2 hPa Calm   6.4 km/h 65% 0.0 mm 125.00 W/m2
17:09 21.5 °C 14.4 °C 1019.2 hPa Calm   4.8 km/h 64% 0.0 mm 111.00 W/m2
17:14 21.3 °C 14.2 °C 1019.2 hPa WNW 1.4 km/h 11.3 km/h 64% 0.0 mm 105.00 W/m2
17:19 21.2 °C 14.4 °C 1019.2 hPa Calm   6.4 km/h 65% 0.0 mm 98.00 W/m2
17:24 21.2 °C 14.4 °C 1019.2 hPa NW 1.4 km/h 6.4 km/h 65% 0.0 mm 83.00 W/m2
17:29 21.3 °C 14.2 °C 1019.2 hPa NW 6.4 km/h 8.0 km/h 64% 0.0 mm 77.00 W/m2
17:34 21.2 °C 14.4 °C 1019.2 hPa NNW 6.4 km/h 6.4 km/h 65% 0.0 mm 69.00 W/m2
17:39 21.0 °C 14.4 °C 1019.2 hPa Calm   1.6 km/h 66% 0.0 mm 76.00 W/m2
17:44 21.2 °C 14.6 °C 1018.8 hPa Calm   3.2 km/h 66% 0.0 mm 86.00 W/m2
17:49 21.1 °C 14.0 °C 1018.8 hPa NNW 1.4 km/h 3.2 km/h 64% 0.0 mm 79.00 W/m2
17:54 21.1 °C 14.3 °C 1018.8 hPa NNW 1.4 km/h 6.4 km/h 65% 0.0 mm 77.00 W/m2
17:59 21.0 °C 14.4 °C 1018.8 hPa Calm   3.2 km/h 66% 0.0 mm 77.00 W/m2
18:04 21.1 °C 14.3 °C 1018.8 hPa NNW 3.2 km/h 6.4 km/h 65% 0.0 mm 79.00 W/m2
18:09 21.1 °C 14.5 °C 1018.8 hPa NNW 1.4 km/h 1.6 km/h 66% 0.0 mm 53.00 W/m2
18:14 21.2 °C 14.4 °C 1019.2 hPa NNW 3.2 km/h 3.2 km/h 65% 0.0 mm 37.00 W/m2
18:19 21.2 °C 14.4 °C 1019.2 hPa Calm   3.2 km/h 65% 0.0 mm 33.00 W/m2
18:24 21.0 °C 14.4 °C 1019.2 hPa Calm   4.8 km/h 66% 0.0 mm 28.00 W/m2
18:29 21.0 °C 14.2 °C 1018.8 hPa NNW 1.4 km/h 3.2 km/h 65% 0.0 mm 30.00 W/m2
18:34 21.0 °C 14.4 °C 1018.8 hPa NNW 1.4 km/h 6.4 km/h 66% 0.0 mm 25.00 W/m2
18:39 21.2 °C 14.6 °C 1019.2 hPa Calm   1.6 km/h 66% 0.0 mm 21.00 W/m2
18:44 21.3 °C 14.7 °C 1019.2 hPa Calm   3.2 km/h 66% 0.0 mm 21.00 W/m2
18:49 21.3 °C 14.7 °C 1018.8 hPa NNW 4.8 km/h 4.8 km/h 66% 0.0 mm 25.00 W/m2
18:54 21.2 °C 14.6 °C 1019.2 hPa Calm   4.8 km/h 66% 0.0 mm 26.00 W/m2
18:59 21.2 °C 14.6 °C 1019.2 hPa NNW 6.4 km/h 6.4 km/h 66% 0.0 mm 32.00 W/m2
19:04 21.2 °C 14.4 °C 1019.2 hPa Calm   1.6 km/h 65% 0.0 mm 33.00 W/m2
19:09 21.3 °C 14.5 °C 1019.2 hPa Calm   3.2 km/h 65% 0.0 mm 42.00 W/m2
19:14 21.3 °C 14.5 °C 1019.2 hPa Calm   1.6 km/h 65% 0.0 mm 67.00 W/m2
19:19 21.0 °C 14.4 °C 1018.8 hPa NNW 6.4 km/h 6.4 km/h 66% 0.0 mm 98.00 W/m2
19:24 21.1 °C 14.5 °C 1018.8 hPa NNW 1.4 km/h 4.8 km/h 66% 0.0 mm 118.00 W/m2
19:29 21.2 °C 14.6 °C 1018.8 hPa Calm   1.6 km/h 66% 0.0 mm 153.00 W/m2
19:34 21.3 °C 14.5 °C 1019.2 hPa NNW 3.2 km/h 4.8 km/h 65% 0.0 mm 174.00 W/m2
19:39 21.4 °C 14.1 °C 1018.8 hPa SSW 9.7 km/h 9.7 km/h 63% 0.0 mm 142.00 W/m2
19:44 21.0 °C 12.4 °C 1019.2 hPa West 11.1 km/h 19.3 km/h 58% 0.0 mm 125.00 W/m2
19:49 20.6 °C 12.0 °C 1019.2 hPa West 13.0 km/h 20.9 km/h 58% 0.0 mm 121.00 W/m2
19:54 20.5 °C 12.2 °C 1019.2 hPa WSW 11.1 km/h 14.5 km/h 59% 0.0 mm 134.00 W/m2
19:59 20.4 °C 12.1 °C 1019.5 hPa WSW 17.7 km/h 17.7 km/h 59% 0.0 mm 84.00 W/m2
20:04 20.3 °C 12.0 °C 1019.5 hPa WSW 4.7 km/h 12.9 km/h 59% 0.0 mm 72.00 W/m2
20:09 20.2 °C 12.2 °C 1019.5 hPa SW 1.4 km/h 3.2 km/h 60% 0.0 mm 58.00 W/m2
20:14 20.0 °C 12.0 °C 1019.5 hPa SW 7.9 km/h 9.7 km/h 60% 0.0 mm 44.00 W/m2
20:19 20.0 °C 12.0 °C 1019.5 hPa SSW 1.4 km/h 4.8 km/h 60% 0.0 mm 46.00 W/m2
20:24 19.9 °C 11.9 °C 1019.5 hPa SW 4.7 km/h 9.7 km/h 60% 0.0 mm 54.00 W/m2
20:29 19.8 °C 11.8 °C 1019.5 hPa SSW 1.4 km/h 4.8 km/h 60% 0.0 mm 39.00 W/m2
20:34 19.7 °C 12.0 °C 1019.5 hPa SSW 6.4 km/h 6.4 km/h 61% 0.0 mm 30.00 W/m2
20:39 19.7 °C 12.0 °C 1019.5 hPa SSW 1.4 km/h 6.4 km/h 61% 0.0 mm 23.00 W/m2
20:44 19.5 °C 12.0 °C 1019.5 hPa SSW 3.2 km/h 4.8 km/h 62% 0.0 mm 21.00 W/m2
20:49 19.4 °C 11.9 °C 1019.5 hPa Calm   1.6 km/h 62% 0.0 mm 18.00 W/m2
20:54 19.3 °C 12.1 °C 1019.5 hPa Calm   1.6 km/h 63% 0.0 mm 14.00 W/m2
20:59 19.2 °C 11.7 °C 1019.5 hPa Calm   4.8 km/h 62% 0.0 mm 11.00 W/m2
21:04 19.1 °C 11.6 °C 1019.5 hPa SSW 3.2 km/h 9.7 km/h 62% 0.0 mm 9.00 W/m2
21:09 18.9 °C 11.5 °C 1019.9 hPa Calm   4.8 km/h 62% 0.0 mm 7.00 W/m2
21:14 18.8 °C 11.4 °C 1019.9 hPa West 4.7 km/h 8.0 km/h 62% 0.0 mm 5.00 W/m2
21:19 18.5 °C 11.3 °C 1019.9 hPa WSW 1.4 km/h 4.8 km/h 63% 0.0 mm 0.00 W/m2
21:24 18.4 °C 11.2 °C 1019.9 hPa Calm   4.8 km/h 63% 0.0 mm 0.00 W/m2
21:29 18.3 °C 11.1 °C 1019.9 hPa WSW 1.4 km/h 3.2 km/h 63% 0.0 mm 0.00 W/m2
21:34 18.2 °C 11.0 °C 1019.9 hPa Calm   3.2 km/h 63% 0.0 mm 0.00 W/m2
21:39 18.0 °C 10.9 °C 1020.2 hPa WSW 8.0 km/h 8.0 km/h 63% 0.0 mm 0.00 W/m2
21:44 17.8 °C 10.9 °C 1020.2 hPa WSW 4.7 km/h 8.0 km/h 64% 0.0 mm 0.00 W/m2
21:49 17.7 °C 10.8 °C 1020.2 hPa WSW 1.4 km/h 1.6 km/h 64% 0.0 mm 0.00 W/m2
21:54 17.6 °C 10.7 °C 1020.2 hPa Calm   1.6 km/h 64% 0.0 mm 0.00 W/m2
21:59 17.7 °C 10.8 °C 1020.5 hPa Calm   1.6 km/h 64% 0.0 mm 0.00 W/m2
22:04 17.6 °C 10.9 °C 1020.5 hPa Calm   1.6 km/h 65% 0.0 mm 0.00 W/m2
22:09 17.4 °C 11.0 °C 1020.5 hPa Calm   1.6 km/h 66% 0.0 mm 0.00 W/m2
22:14 17.2 °C 10.6 °C 1020.5 hPa NNW 1.4 km/h 4.8 km/h 65% 0.0 mm 0.00 W/m2
22:19 17.1 °C 10.5 °C 1020.5 hPa NNW 1.4 km/h 1.6 km/h 65% 0.0 mm 0.00 W/m2
22:24 17.0 °C 10.4 °C 1020.5 hPa SW 3.2 km/h 4.8 km/h 65% 0.0 mm 0.00 W/m2
22:29 16.9 °C 10.3 °C 1020.5 hPa Calm     65% 0.0 mm 0.00 W/m2
22:34 16.9 °C 10.5 °C 1020.5 hPa Calm     66% 0.0 mm 0.00 W/m2
22:39 16.9 °C 10.7 °C 1020.5 hPa Calm     67% 0.0 mm 0.00 W/m2
22:44 16.8 °C 10.2 °C 1020.5 hPa Calm     65% 0.0 mm 0.00 W/m2
22:49 16.5 °C 9.7 °C 1020.5 hPa WSW 4.7 km/h 8.0 km/h 64% 0.0 mm 0.00 W/m2
22:54 16.5 °C 9.7 °C 1020.5 hPa SW 9.7 km/h 9.7 km/h 64% 0.0 mm 0.00 W/m2
22:59 16.4 °C 9.6 °C 1020.5 hPa Calm   4.8 km/h 64% 0.0 mm 0.00 W/m2
23:04 16.3 °C 9.5 °C 1020.5 hPa WSW 3.2 km/h 6.4 km/h 64% 0.0 mm 0.00 W/m2
23:09 16.2 °C 9.4 °C 1020.5 hPa WSW 1.4 km/h 4.8 km/h 64% 0.0 mm 0.00 W/m2
23:14 16.1 °C 9.3 °C 1020.5 hPa WSW 4.7 km/h 6.4 km/h 64% 0.0 mm 0.00 W/m2
23:19 16.0 °C 9.4 °C 1020.5 hPa WSW 1.4 km/h 3.2 km/h 65% 0.0 mm 0.00 W/m2
23:24 16.0 °C 9.4 °C 1020.5 hPa WSW 1.4 km/h 3.2 km/h 65% 0.0 mm 0.00 W/m2
23:29 15.9 °C 9.3 °C 1020.5 hPa WSW 1.4 km/h 4.8 km/h 65% 0.0 mm 0.00 W/m2
23:34 15.8 °C 9.2 °C 1020.5 hPa NNW 1.4 km/h 6.4 km/h 65% 0.0 mm 0.00 W/m2
23:39 15.7 °C 9.1 °C 1020.5 hPa Calm     65% 0.0 mm 0.00 W/m2
23:44 15.7 °C 9.1 °C 1020.5 hPa Calm     65% 0.0 mm 0.00 W/m2
23:49 15.7 °C 9.1 °C 1020.5 hPa Calm     65% 0.0 mm 0.00 W/m2
23:54 15.7 °C 8.9 °C 1020.5 hPa Calm     64% 0.0 mm 0.00 W/m2
23:59 15.6 °C 8.8 °C 1020.5 hPa Calm     64% 0.0 mm 0.00 W/m2